Station NKLA2 - Nikolski White Alice Image indicating link to RSS feed of recent meteorological observations for station NKLA2


Conditions at NKLA2 as of
(11:45 pm AKDT on 06/22/2024)
0745 GMT on 06/23/2024:
     

Click on the graph icon in the table below to see a time series plot of the last five days of that observation.

5-day plot - Wind Direction Wind Direction (WDIR):ENE ( 70 deg true )
5-day plot - Wind Speed Wind Speed (WSPD): 26.0 kts
5-day plot - Wind Gust Wind Gust (GST): 35.0 kts
5-day plot - Air Temperature Air Temperature (ATMP): 41.7 °F
5-day plot - Dew Point Dew Point (DEWP): 41.7 °F
5-day plot - Wind Chill Wind Chill (CHILL): 30.7 °F
5-day plot - Wind Speed at 10 Meters Wind Speed at 10 meters (WSPD10M): 27.2 kts
5-day plot - Wind Speed at 20 Meters Wind Speed at 20 meters (WSPD20M): 31.1 kts
5-day plot -  Wind Speed, Wind Gust and Atmospheric Pressure Combined plot of Wind Speed, Gust, and Air Pressure
Previous observations
TIME
(AKDT)
5-day plot - Wind Direction
WDIR
 
5-day plot - Wind Speed
WSPD
kts
5-day plot - Wind Gust
GST
kts
5-day plot - Wave Height
WVHT
ft
5-day plot - Dominant Wave Period
DPD
sec
5-day plot - Average Wave Period
APD
sec
5-day plot - Mean Wave Direction
MWD
 
5-day plot - Atmospheric Pressure
PRES
in
5-day plot - Pressure Tendency
PTDY
in
5-day plot - Air Temperature
ATMP
°F
5-day plot - Water Temperature
WTMP
°F
5-day plot - Dew Point
DEWP
°F
5-day plot - Salinity
SAL
psu
5-day plot - Visibility
VIS
nmi
5-day plot - Tide (above MLLW)
TIDE
ft
2024-06-22 11:35 pmENE 24.1 32.1------ 41.7- 41.7---
2024-06-22 11:25 pm E 21.0 29.9------ 41.7- 41.7---
2024-06-22 11:15 pmENE 25.1 32.1------ 41.9- 41.9---
2024-06-22 11:05 pm E 25.1 35.0------ 41.9- 41.9---
2024-06-22 10:55 pmENE 25.1 35.0------ 41.9- 41.9---
2024-06-22 10:44 pmENE 27.0 36.9------ 42.3- 42.3---
2024-06-22 10:35 pmENE 26.0 35.0------ 42.3- 42.3---
2024-06-22 10:25 pmENE 26.0 36.9------ 42.3- 42.3---
2024-06-22 10:14 pmENE 27.0 35.9------ 42.1- 42.1---
2024-06-22 10:05 pmENE 27.0 35.9------ 42.3- 42.3---
2024-06-22 09:54 pmENE 27.0 35.0------ 42.4- 42.4---
2024-06-22 09:45 pmENE 28.0 36.9------ 42.6- 42.6---
2024-06-22 09:35 pmENE 28.0 36.9------ 42.6- 42.6---
2024-06-22 09:25 pmENE 28.0 36.9------ 42.6- 42.6---
2024-06-22 09:15 pmENE 28.0 35.9------ 42.4- 42.4---
2024-06-22 09:05 pmENE 27.0 35.9------ 42.3- 42.3---
2024-06-22 08:55 pmENE 28.0 36.9------ 42.1- 42.1---
2024-06-22 08:45 pmENE 28.9 39.0------ 42.1- 42.1---
2024-06-22 08:25 pmENE 32.1 41.0------ 42.1- 42.1---
2024-06-22 08:15 pm E 29.9 41.0------ 42.1- 42.1---
2024-06-22 08:05 pmENE 31.1 41.0------ 42.3- 42.3---
2024-06-22 07:55 pmENE 32.1 41.0------ 42.3- 42.3---
2024-06-22 07:45 pmENE 32.1 41.0------ 42.3- 42.3---
2024-06-22 07:35 pm E 28.9 41.0------ 42.4- 42.4---
2024-06-22 07:24 pmENE 32.1 41.0------ 42.4- 42.4---
2024-06-22 07:15 pmENE 28.0 39.0------ 42.4- 42.4---
2024-06-22 07:05 pmENE 29.9 42.0------ 42.3- 42.3---
2024-06-22 06:54 pm E 32.1 41.0------ 42.3- 42.3---
2024-06-22 06:45 pm E 28.9 40.0------ 42.3- 42.3---
2024-06-22 06:34 pmENE 31.1 39.0------ 41.9- 41.9---
2024-06-22 06:25 pmENE 29.9 39.0------ 41.9- 41.9---
2024-06-22 06:15 pmENE 29.9 39.0------ 41.7- 41.7---
2024-06-22 06:05 pmENE 31.1 40.0------ 41.5- 41.5---
2024-06-22 05:55 pm E 28.0 36.9------ 41.5- 41.5---
2024-06-22 05:45 pmENE 32.1 42.0------ 41.5- 41.5---
2024-06-22 05:35 pmENE 33.0 42.9------ 41.4- 41.4---
2024-06-22 05:25 pm E 28.9 40.0------ 41.4- 41.4---
2024-06-22 05:15 pmENE 34.0 44.1------ 41.2- 41.2---
2024-06-22 05:04 pm E 31.1 41.0------ 41.4- 41.4---
2024-06-22 04:55 pm E 31.1 42.9------ 41.4- 41.4---
2024-06-22 04:45 pm E 31.1 42.0------ 41.4- 41.4---
2024-06-22 04:34 pm E 28.0 38.1------ 41.5- 41.5---
2024-06-22 04:25 pm E 22.0 35.0------ 41.5- 41.5---
2024-06-22 04:15 pm E 26.0 38.1------ 41.4- 41.4---
2024-06-22 03:55 pm E 20.0 29.9------ 41.5- 41.5---
2024-06-22 03:45 pm E 20.0 29.9------ 41.5- 41.5---
2024-06-22 03:35 pm E 21.0 33.0------ 41.5- 41.5---
2024-06-22 03:25 pm E 21.0 33.0------ 41.7- 41.7---
2024-06-22 03:14 pm E 26.0 34.0------ 41.5- 41.5---
2024-06-22 03:05 pm E 28.0 40.0------ 41.4- 41.4---
2024-06-22 02:55 pm E 28.9 35.9------ 41.5- 41.5---
2024-06-22 02:45 pm E 26.0 35.9------ 41.5- 41.5---
2024-06-22 02:35 pm E 27.0 35.0------ 41.4- 41.4---
2024-06-22 02:25 pm E 26.0 35.0------ 41.4- 41.4---
2024-06-22 02:15 pm E 22.9 34.0------ 41.7- 41.7---
2024-06-22 02:05 pm E 20.0 31.1------ 41.7- 41.7---
2024-06-22 01:55 pm E 19.0 34.0------ 41.7- 41.7---
2024-06-22 01:45 pm E 24.1 35.9------ 41.4- 41.4---
2024-06-22 01:35 pm E 32.1 40.0------ 41.2- 41.2---
2024-06-22 01:25 pm E 33.0 40.0------ 41.2- 41.2---
2024-06-22 01:15 pm E 31.1 39.0------ 41.2- 41.2---
2024-06-22 01:05 pm E 31.1 38.1------ 41.4- 41.4---
2024-06-22 12:55 pm E 29.9 38.1------ 41.5- 41.5---
2024-06-22 12:45 pm E 29.9 40.0------ 41.4- 41.4---
2024-06-22 12:35 pm E 32.1 39.0------ 41.2- 41.2---
2024-06-22 12:14 pm E 33.0 44.1------ 41.0- 41.0---
2024-06-22 12:05 pm E 27.0 49.9------ 41.2- 41.2---
2024-06-22 11:55 am E 29.9 39.0------ 41.2- 41.2---
2024-06-22 11:45 am E 28.0 41.0------ 41.4- 41.4---
2024-06-22 11:35 amENE 34.0 42.9------ 41.2- 41.2---
2024-06-22 11:25 am E 34.0 41.0------ 41.2- 41.2---
2024-06-22 11:15 am E 34.0 42.9------ 41.2- 41.2---
2024-06-22 11:05 am E 32.1 40.0------ 41.4- 41.4---
2024-06-22 10:55 am E 31.1 40.0------ 41.4- 41.4---
2024-06-22 10:45 am E 28.9 40.0------ 41.2- 41.2---
2024-06-22 10:35 am E 29.9 38.1------ 41.0- 41.0---
2024-06-22 10:25 am E 22.9 33.0------ 41.0- 41.0---
2024-06-22 10:14 am E 21.0 32.1------ 40.8- 40.8---
2024-06-22 10:05 am E 21.0 32.1------ 41.0- 41.0---
2024-06-22 09:55 am E 22.0 35.0------ 41.0- 41.0---
2024-06-22 09:45 am E 26.0 31.1------ 40.6- 40.6---
2024-06-22 09:35 am E 25.1 32.1------ 40.6- 40.6---
2024-06-22 09:25 am E 15.9 28.9------ 41.0- 41.0---
2024-06-22 09:15 am E 17.1 27.0------ 41.0- 41.0---
2024-06-22 09:05 am E 20.0 31.1------ 41.0- 41.0---
2024-06-22 08:55 am E 21.0 31.1------ 40.8- 40.8---
2024-06-22 08:45 am E 15.9 27.0------ 40.6- 40.6---
2024-06-22 08:35 am E 18.1 27.0------ 40.5- 40.5---
2024-06-22 08:25 am E 21.0 28.9------ 40.3- 40.3---
2024-06-22 08:15 am E 22.0 28.0------ 40.1- 40.1---
2024-06-22 08:05 am E 14.0 22.9------ 40.1- 40.1---
2024-06-22 07:55 am E 15.0 25.1------ 40.3- 40.3---
2024-06-22 07:45 am E 20.0 27.0------ 40.3- 40.3---
2024-06-22 07:35 am E 15.0 25.1------ 40.1- 40.1---
2024-06-22 07:25 am E 14.0 22.0------ 40.1- 40.1---
2024-06-22 07:15 am E 18.1 26.0------ 40.1- 40.1---
2024-06-22 07:05 am E 21.0 27.0------ 40.3- 40.1---
2024-06-22 06:55 am E 20.0 25.1------ 40.1- 40.1---
2024-06-22 06:45 am E 20.0 26.0------ 40.3- 40.1---
2024-06-22 06:35 am E 19.0 26.0------ 40.3- 40.1---
2024-06-22 06:25 am E 20.0 25.1------ 40.1- 39.9---
2024-06-22 06:15 am E 19.0 26.0------ 40.3- 40.1---
2024-06-22 06:05 am E 17.1 22.9------ 40.1- 39.9---
2024-06-22 05:55 am E 18.1 25.1------ 40.1- 39.9---
2024-06-22 05:45 am E 19.0 25.1------ 40.1- 39.7---
2024-06-22 05:35 am E 19.0 25.1------ 40.3- 39.7---
2024-06-22 05:25 am E 15.9 22.9------ 40.3- 39.7---
2024-06-22 05:15 am E 15.0 24.1------ 40.5- 39.7---
2024-06-22 05:04 am E 17.1 22.9------ 40.5- 39.7---
2024-06-22 04:54 am E 17.1 24.1------ 40.6- 39.6---
2024-06-22 04:45 am E 17.1 22.9------ 40.6- 39.4---
2024-06-22 04:34 am E 17.1 22.9------ 40.6- 39.6---
2024-06-22 04:24 am E 15.9 22.0------ 40.8- 39.6---
2024-06-22 04:15 am E 17.1 22.9------ 40.8- 39.6---
2024-06-22 04:04 am E 15.9 22.9------ 40.8- 39.6---
2024-06-22 03:55 am E 15.9 22.9------ 40.8- 39.7---
2024-06-22 03:45 am E 17.1 22.9------ 41.0- 39.7---
2024-06-22 03:34 am E 15.0 22.0------ 41.0- 39.7---
2024-06-22 03:24 am E 15.9 21.0------ 40.8- 39.4---
2024-06-22 03:14 am E 15.0 22.0------ 40.8- 39.4---
2024-06-22 03:04 am E 14.0 21.0------ 41.0- 39.6---
2024-06-22 02:55 am E 15.9 24.1------ 41.0- 39.6---
2024-06-22 02:44 am E 14.0 19.0------ 41.0- 39.4---
2024-06-22 02:35 am E 13.0 19.0------ 41.0- 39.4---
2024-06-22 02:25 am E 14.0 22.9------ 41.2- 39.4---
2024-06-22 02:15 am E 14.0 19.0------ 41.2- 39.4---
2024-06-22 02:05 amESE 15.9 22.0------ 41.4- 39.6---
2024-06-22 01:55 amESE 15.9 21.0------ 41.4- 39.9---
2024-06-22 01:44 amESE 15.0 19.0------ 41.4- 40.1---
2024-06-22 01:35 amESE 15.0 20.0------ 41.5- 40.3---
2024-06-22 01:24 amESE 12.0 17.1------ 41.5- 40.3---
2024-06-22 01:15 amESE 11.1 15.9------ 41.5- 40.3---
2024-06-22 01:05 amESE 8.0 12.0------ 41.4- 40.6---
2024-06-22 12:55 amESE 8.0 13.0------ 41.5- 40.8---
2024-06-22 12:45 amESE 7.0 8.9------ 41.5- 40.6---
2024-06-22 12:35 amESE 6.0 8.0------ 41.5- 40.5---
2024-06-22 12:25 amESE 6.0 8.0------ 41.5- 40.6---
2024-06-22 12:16 amESE 5.1 7.0------ 41.7- 40.6---
2024-06-22 12:05 am SE 7.0 8.9------ 41.7- 40.3---
2024-06-21 11:55 pmSSE 6.0 8.9------ 41.7- 40.6---